createdAt,value
2022-09-24T00:01:41.389Z,3.60
2022-09-24T00:04:12.209Z,4.38
2022-09-24T00:06:45.555Z,4.25
2022-09-24T00:09:14.400Z,3.28
2022-09-24T00:11:44.082Z,4.50
2022-09-24T00:14:12.078Z,3.78
2022-09-24T00:16:40.887Z,3.50
2022-09-24T00:19:08.106Z,3.78
2022-09-24T00:21:37.123Z,3.90
2022-09-24T00:24:10.274Z,3.70
2022-09-24T00:26:49.495Z,3.85
2022-09-24T00:29:19.840Z,3.63
2022-09-24T00:31:47.675Z,4.03
2022-09-24T00:34:14.839Z,4.22
2022-09-24T00:36:41.837Z,4.10
2022-09-24T00:39:08.965Z,3.97
2022-09-24T00:41:38.148Z,4.70
2022-09-24T00:44:42.737Z,4.13
2022-09-24T00:47:27.471Z,4.25
2022-09-24T00:50:06.375Z,4.30
2022-09-24T00:52:37.781Z,4.32
2022-09-24T00:55:05.592Z,4.10
2022-09-24T00:57:32.994Z,3.97
2022-09-24T01:00:00.006Z,3.55
2022-09-24T01:02:27.006Z,3.63
2022-09-24T01:04:56.654Z,4.40
2022-09-24T01:07:24.056Z,4.85
2022-09-24T01:09:51.097Z,4.38
2022-09-24T01:12:39.112Z,4.63
2022-09-24T01:15:19.842Z,4.15
2022-09-24T01:17:53.548Z,4.30
2022-09-24T01:20:41.487Z,4.75
2022-09-24T01:23:24.410Z,4.75
2022-09-24T01:26:08.143Z,4.43
2022-09-24T01:29:06.075Z,4.72
2022-09-24T01:31:44.607Z,4.50
2022-09-24T01:34:15.675Z,4.00
2022-09-24T01:36:45.177Z,4.53
2022-09-24T01:39:14.583Z,4.05
2022-09-24T01:41:43.204Z,4.15
2022-09-24T01:44:11.970Z,3.95
2022-09-24T01:46:41.120Z,4.05
2022-09-24T01:49:08.969Z,4.32
2022-09-24T01:51:58.743Z,3.88
2022-09-24T01:54:37.635Z,4.18
2022-09-24T01:57:17.504Z,4.40
2022-09-24T01:59:55.802Z,3.50
2022-09-24T02:02:38.332Z,4.22
2022-09-24T02:05:21.198Z,4.20
2022-09-24T02:08:27.635Z,4.40
2022-09-24T02:11:00.360Z,4.80
2022-09-24T02:13:32.224Z,4.28
2022-09-24T02:16:02.378Z,4.43
2022-09-24T02:18:38.896Z,4.60
2022-09-24T02:21:10.863Z,3.88
2022-09-24T02:23:41.960Z,3.80
2022-09-24T02:26:09.177Z,4.00
2022-09-24T02:28:36.252Z,4.05
2022-09-24T02:31:17.226Z,4.10
2022-09-24T02:34:06.604Z,4.78
2022-09-24T02:36:33.710Z,4.95
2022-09-24T02:39:00.739Z,5.70
2022-09-24T02:41:30.175Z,4.78
2022-09-24T02:43:57.401Z,5.30
2022-09-24T02:46:24.559Z,4.72
2022-09-24T02:48:51.558Z,5.63
2022-09-24T02:51:18.477Z,6.15
2022-09-24T02:53:45.429Z,5.38
2022-09-24T02:56:12.428Z,5.88
2022-09-24T02:58:39.858Z,6.72
2022-09-24T03:01:06.874Z,6.18
2022-09-24T03:03:33.852Z,6.55
2022-09-24T03:06:00.840Z,5.18
2022-09-24T03:08:27.883Z,5.72
2022-09-24T03:10:56.298Z,5.53
2022-09-24T03:13:23.798Z,5.28
2022-09-24T03:15:50.890Z,5.68
2022-09-24T03:18:17.972Z,6.07
2022-09-24T03:20:53.955Z,6.95
2022-09-24T03:23:20.898Z,5.88
2022-09-24T03:25:47.859Z,6.40
2022-09-24T03:28:14.831Z,6.97
2022-09-24T03:31:00.216Z,6.65
2022-09-24T03:33:29.974Z,7.65
2022-09-24T03:36:24.441Z,8.25
2022-09-24T03:38:56.557Z,6.95
2022-09-24T03:41:25.732Z,8.00
2022-09-24T03:43:52.866Z,7.65
2022-09-24T03:46:19.912Z,7.20
2022-09-24T03:48:47.725Z,6.82
2022-09-24T03:51:18.854Z,5.25
2022-09-24T03:53:47.053Z,5.88
2022-09-24T03:56:14.146Z,5.50
2022-09-24T03:58:42.057Z,4.85
2022-09-24T04:01:12.170Z,5.88
2022-09-24T04:03:40.146Z,6.50
2022-09-24T04:06:07.520Z,6.13
2022-09-24T04:08:34.587Z,7.15
2022-09-24T04:11:01.646Z,7.88
2022-09-24T04:13:28.927Z,7.88
2022-09-24T04:15:56.308Z,6.43
2022-09-24T04:18:23.287Z,6.10
2022-09-24T04:20:50.256Z,6.65
2022-09-24T04:23:17.303Z,6.88
2022-09-24T04:25:44.479Z,7.63
2022-09-24T04:28:12.043Z,6.90
2022-09-24T04:30:39.147Z,8.10
2022-09-24T04:33:07.227Z,6.85
2022-09-24T04:35:38.601Z,8.40
2022-09-24T04:38:05.990Z,7.85
2022-09-24T04:40:33.460Z,7.88
2022-09-24T04:43:00.754Z,9.13
2022-09-24T04:45:28.119Z,8.70
2022-09-24T04:47:58.148Z,9.18
2022-09-24T04:50:33.291Z,8.50
2022-09-24T04:53:02.449Z,8.45
2022-09-24T04:55:29.614Z,9.52
2022-09-24T04:57:59.752Z,7.93
2022-09-24T05:00:26.705Z,8.20
2022-09-24T05:02:59.391Z,8.07
2022-09-24T05:05:27.080Z,7.28
2022-09-24T05:07:56.740Z,7.97
2022-09-24T05:10:25.244Z,7.72
2022-09-24T05:12:52.764Z,7.20
2022-09-24T05:15:20.056Z,7.53
2022-09-24T05:17:47.656Z,8.07
2022-09-24T05:20:16.244Z,13.35
2022-09-24T05:22:45.016Z,9.00
2022-09-24T05:25:13.505Z,8.00
2022-09-24T05:27:51.333Z,7.13
2022-09-24T05:30:20.065Z,6.10
2022-09-24T05:32:52.285Z,6.60
2022-09-24T05:35:23.935Z,5.75
2022-09-24T05:37:53.435Z,5.85
2022-09-24T05:40:39.841Z,5.75
2022-09-24T05:43:07.094Z,5.90
2022-09-24T05:45:34.066Z,6.05
2022-09-24T05:48:01.273Z,6.22
2022-09-24T05:50:28.834Z,6.38
2022-09-24T05:52:56.129Z,5.78
2022-09-24T05:55:23.069Z,5.60
2022-09-24T05:57:50.084Z,5.78
2022-09-24T06:00:17.104Z,4.70
2022-09-24T06:02:44.258Z,4.75
2022-09-24T06:05:11.936Z,4.22
2022-09-24T06:07:39.374Z,4.22
2022-09-24T06:10:10.352Z,4.50
2022-09-24T06:12:37.337Z,4.40
2022-09-24T06:15:05.052Z,4.15
2022-09-24T06:17:32.577Z,4.10
2022-09-24T06:19:59.625Z,4.32
2022-09-24T06:22:28.800Z,4.00
2022-09-24T06:24:56.292Z,4.25
2022-09-24T06:27:23.756Z,4.85
2022-09-24T06:29:50.729Z,4.72
2022-09-24T06:32:18.781Z,6.28
2022-09-24T06:34:45.944Z,5.45
2022-09-24T06:37:12.893Z,8.68
2022-09-24T06:39:39.906Z,8.55
2022-09-24T06:42:07.232Z,7.75
2022-09-24T06:44:36.906Z,8.52
2022-09-24T06:47:04.053Z,9.75
2022-09-24T06:49:34.216Z,7.75
2022-09-24T06:52:02.144Z,8.43
2022-09-24T06:54:29.115Z,10.63
2022-09-24T06:56:56.126Z,10.70
2022-09-24T06:59:23.079Z,13.20
2022-09-24T07:01:50.335Z,16.70
2022-09-24T07:04:17.805Z,12.90
2022-09-24T07:07:03.116Z,10.65
2022-09-24T07:09:30.166Z,9.68
2022-09-24T07:11:58.967Z,10.23
2022-09-24T07:14:25.899Z,9.60
2022-09-24T07:16:54.022Z,9.30
2022-09-24T07:19:21.059Z,8.88
2022-09-24T07:21:48.102Z,8.07
2022-09-24T07:24:15.117Z,8.15
2022-09-24T07:26:42.352Z,9.50
2022-09-24T07:29:09.382Z,9.10
2022-09-24T07:31:36.702Z,8.52
2022-09-24T07:34:06.376Z,8.55
2022-09-24T07:36:33.304Z,6.82
2022-09-24T07:39:01.295Z,7.40
2022-09-24T07:41:28.223Z,7.85
2022-09-24T07:43:56.315Z,6.07
2022-09-24T07:46:24.442Z,6.22
2022-09-24T07:48:56.466Z,5.68
2022-09-24T07:51:25.934Z,6.47
2022-09-24T07:53:53.183Z,6.40
2022-09-24T07:56:20.375Z,5.97
2022-09-24T07:58:54.028Z,5.68
2022-09-24T08:01:21.236Z,5.32
2022-09-24T08:03:48.500Z,5.20
2022-09-24T08:06:15.492Z,5.13
2022-09-24T08:08:43.571Z,5.20
2022-09-24T08:11:17.097Z,5.65
2022-09-24T08:13:45.196Z,4.85
2022-09-24T08:16:13.063Z,6.97
2022-09-24T08:18:40.356Z,5.20
2022-09-24T08:21:11.861Z,5.45
2022-09-24T08:23:40.263Z,5.50
2022-09-24T08:26:07.352Z,4.85
2022-09-24T08:28:34.686Z,4.90
2022-09-24T08:31:04.303Z,6.03
2022-09-24T08:33:33.001Z,7.43
2022-09-24T08:36:01.049Z,7.50
2022-09-24T08:38:28.314Z,10.07
2022-09-24T08:41:07.847Z,10.93
2022-09-24T08:43:52.079Z,6.60
2022-09-24T08:46:43.385Z,4.65
2022-09-24T08:49:17.209Z,3.95
2022-09-24T08:51:57.847Z,4.00
2022-09-24T08:54:26.764Z,3.33
2022-09-24T08:56:56.012Z,3.70
2022-09-24T08:59:32.748Z,3.08
2022-09-24T09:02:37.094Z,2.72
2022-09-24T09:05:20.485Z,2.85
2022-09-24T09:07:56.500Z,2.42
2022-09-24T09:10:29.030Z,2.70
2022-09-24T09:13:09.995Z,2.50
2022-09-24T09:15:43.027Z,2.67
2022-09-24T09:18:14.888Z,2.38
2022-09-24T09:20:44.636Z,2.60
2022-09-24T09:23:22.271Z,2.47
2022-09-24T09:25:56.455Z,2.22
2022-09-24T09:28:25.751Z,2.00
2022-09-24T09:30:55.788Z,2.55
2022-09-24T09:33:54.352Z,2.53
2022-09-24T09:36:43.430Z,2.15
2022-09-24T09:39:34.268Z,2.13
2022-09-24T09:42:01.680Z,2.50
2022-09-24T09:44:31.098Z,2.05
2022-09-24T09:47:09.977Z,1.98
2022-09-24T09:49:39.163Z,1.88
2022-09-24T09:52:14.987Z,2.08
2022-09-24T09:54:43.503Z,2.40
2022-09-24T09:57:25.135Z,1.85
2022-09-24T09:59:54.485Z,2.13
2022-09-24T10:02:30.339Z,2.30
2022-09-24T10:05:00.989Z,2.38
2022-09-24T10:07:28.729Z,2.30
2022-09-24T10:10:19.234Z,1.60
2022-09-24T10:12:46.479Z,1.90
2022-09-24T10:15:19.046Z,2.00
2022-09-24T10:17:49.361Z,2.00
2022-09-24T10:20:21.213Z,2.40
2022-09-24T10:22:53.816Z,2.20
2022-09-24T10:25:28.536Z,2.58
2022-09-24T10:28:20.484Z,2.60
2022-09-24T10:31:13.283Z,2.40
2022-09-24T10:33:44.400Z,2.15
2022-09-24T10:36:21.963Z,2.47
2022-09-24T10:38:49.792Z,2.35
2022-09-24T10:41:27.306Z,2.38
2022-09-24T10:43:56.636Z,2.53
2022-09-24T10:46:35.619Z,2.40
2022-09-24T10:49:39.403Z,2.33
2022-09-24T10:52:22.889Z,2.50
2022-09-24T10:55:17.772Z,2.33
2022-09-24T10:58:16.502Z,2.45
2022-09-24T11:01:09.480Z,2.25
2022-09-24T11:03:51.309Z,2.72
2022-09-24T11:06:42.528Z,2.58
2022-09-24T11:09:23.956Z,2.88
2022-09-24T11:12:15.506Z,2.92
2022-09-24T11:14:51.595Z,2.90
2022-09-24T11:17:46.025Z,3.67
2022-09-24T11:20:30.218Z,3.30
2022-09-24T11:23:33.368Z,2.97
2022-09-24T11:26:25.797Z,2.83
2022-09-24T11:29:15.977Z,2.70
2022-09-24T11:31:51.706Z,2.88
2022-09-24T11:34:47.126Z,3.20
2022-09-24T11:37:42.840Z,2.72
2022-09-24T11:40:13.199Z,2.97
2022-09-24T11:42:52.183Z,2.90
2022-09-24T11:45:41.758Z,2.72
2022-09-24T11:48:30.258Z,2.70
2022-09-24T11:51:23.079Z,3.05
2022-09-24T11:53:58.661Z,2.50
2022-09-24T11:56:43.093Z,2.80
2022-09-24T11:59:21.944Z,2.95
2022-09-24T12:02:25.260Z,3.10
2022-09-24T12:04:59.154Z,3.60
2022-09-24T12:07:45.473Z,3.22
2022-09-24T12:10:32.345Z,3.10
2022-09-24T12:13:39.786Z,2.70
2022-09-24T12:16:21.978Z,3.00
2022-09-24T12:19:18.860Z,2.90
2022-09-24T12:21:48.527Z,3.22
2022-09-24T12:24:25.290Z,3.10
2022-09-24T12:26:53.852Z,3.38
2022-09-24T12:30:15.339Z,2.90
2022-09-24T12:33:05.392Z,4.05
2022-09-24T12:35:55.284Z,3.80
2022-09-24T12:38:43.640Z,3.55
2022-09-24T12:41:43.254Z,3.33
2022-09-24T12:44:10.268Z,3.88
2022-09-24T12:46:55.731Z,3.75
2022-09-24T12:49:25.714Z,3.83
2022-09-24T12:51:54.698Z,4.53
2022-09-24T12:54:38.078Z,3.80
2022-09-24T12:57:26.529Z,3.78
2022-09-24T12:59:59.837Z,3.25
2022-09-24T13:02:30.534Z,2.88
2022-09-24T13:05:03.545Z,3.28
2022-09-24T13:07:56.908Z,3.60
2022-09-24T13:10:30.494Z,3.53
2022-09-24T13:13:00.157Z,4.25
2022-09-24T13:15:30.013Z,3.63
2022-09-24T13:18:06.943Z,4.63
2022-09-24T13:20:36.297Z,4.15
2022-09-24T13:23:14.673Z,3.55
2022-09-24T13:25:42.166Z,3.72
2022-09-24T13:28:29.233Z,3.67
2022-09-24T13:31:25.603Z,4.18
2022-09-24T13:34:03.931Z,5.15
2022-09-24T13:36:38.312Z,3.75
2022-09-24T13:39:21.089Z,3.20
2022-09-24T13:41:57.741Z,2.55
2022-09-24T13:44:31.216Z,3.30
2022-09-24T13:47:27.159Z,3.80
2022-09-24T13:50:03.360Z,3.97
2022-09-24T13:52:36.103Z,3.40
2022-09-24T13:55:26.222Z,6.13
2022-09-24T13:57:53.146Z,6.78
2022-09-24T14:00:23.044Z,6.78
2022-09-24T14:03:16.691Z,4.65
2022-09-24T14:05:44.007Z,3.70
2022-09-24T14:08:15.709Z,3.60
2022-09-24T14:10:43.479Z,3.63
2022-09-24T14:13:17.845Z,4.35
2022-09-24T14:15:55.204Z,4.40
2022-09-24T14:18:23.036Z,4.28
2022-09-24T14:21:07.406Z,4.70
2022-09-24T14:23:50.436Z,4.97
2022-09-24T14:26:37.535Z,4.53
2022-09-24T14:29:09.013Z,4.65
2022-09-24T14:31:54.316Z,4.57
2022-09-24T14:34:35.527Z,5.10
2022-09-24T14:37:21.768Z,6.20
2022-09-24T14:39:56.495Z,6.00
2022-09-24T14:42:53.806Z,8.40
2022-09-24T14:45:28.429Z,11.05
2022-09-24T14:48:03.751Z,12.40
2022-09-24T14:50:32.272Z,16.65
2022-09-24T14:53:00.813Z,16.42
2022-09-24T14:55:42.652Z,9.35
2022-09-24T14:58:28.228Z,6.35
2022-09-24T15:01:00.627Z,5.88
2022-09-24T15:03:32.739Z,5.32
2022-09-24T15:06:30.294Z,5.43
2022-09-24T15:08:58.038Z,5.53
2022-09-24T15:11:31.435Z,5.68
2022-09-24T15:14:00.831Z,10.02
2022-09-24T15:16:36.278Z,8.20
2022-09-24T15:19:20.534Z,10.40
2022-09-24T15:21:52.947Z,25.52
2022-09-24T15:24:21.229Z,17.20
2022-09-24T15:26:59.181Z,11.48
2022-09-24T15:29:26.505Z,11.63
2022-09-24T15:31:55.068Z,13.27
2022-09-24T15:34:21.982Z,10.88
2022-09-24T15:36:54.101Z,9.32
2022-09-24T15:39:21.401Z,8.60
2022-09-24T15:41:48.331Z,8.55
2022-09-24T15:44:22.603Z,8.32
2022-09-24T15:46:53.447Z,9.27
2022-09-24T15:49:22.231Z,8.48
2022-09-24T15:51:57.385Z,8.60
2022-09-24T15:54:24.992Z,8.93
2022-09-24T15:56:52.646Z,8.35
2022-09-24T15:59:21.688Z,8.55
2022-09-24T16:01:51.218Z,8.70
2022-09-24T16:04:18.386Z,8.60
2022-09-24T16:06:45.382Z,8.15
2022-09-24T16:09:12.462Z,8.75
2022-09-24T16:11:39.616Z,8.32
2022-09-24T16:14:07.484Z,8.30
2022-09-24T16:16:34.586Z,11.02
2022-09-24T16:19:01.576Z,8.40
2022-09-24T16:21:28.489Z,9.00
2022-09-24T16:23:56.518Z,8.93
2022-09-24T16:26:24.510Z,8.90
2022-09-24T16:28:51.730Z,9.48
2022-09-24T16:31:19.740Z,12.27
2022-09-24T16:33:47.113Z,9.40
2022-09-24T16:36:14.227Z,9.90
2022-09-24T16:38:41.482Z,10.00
2022-09-24T16:41:08.761Z,9.00
2022-09-24T16:43:35.710Z,9.05
2022-09-24T16:46:04.787Z,9.95
2022-09-24T16:48:32.300Z,9.05
2022-09-24T16:51:10.873Z,10.40
2022-09-24T16:53:38.619Z,8.75
2022-09-24T16:56:06.719Z,7.55
2022-09-24T16:58:34.154Z,6.63
2022-09-24T17:01:05.019Z,9.73
2022-09-24T17:03:32.267Z,12.85
2022-09-24T17:05:59.335Z,13.05
2022-09-24T17:08:46.483Z,14.05
2022-09-24T17:11:14.093Z,13.02
2022-09-24T17:13:41.241Z,12.85
2022-09-24T17:16:08.368Z,12.00
2022-09-24T17:18:35.725Z,12.20
2022-09-24T17:21:08.790Z,13.18
2022-09-24T17:23:35.963Z,13.82
2022-09-24T17:26:07.425Z,13.18
2022-09-24T17:28:36.112Z,14.00
2022-09-24T17:31:04.698Z,14.60
2022-09-24T17:33:47.182Z,19.08
2022-09-24T17:36:15.836Z,14.27
2022-09-24T17:38:42.961Z,17.20
2022-09-24T17:41:12.820Z,14.18
2022-09-24T17:43:41.599Z,15.30
2022-09-24T17:46:14.382Z,15.55
2022-09-24T17:48:46.935Z,12.25
2022-09-24T17:51:16.875Z,10.38
2022-09-24T17:53:43.850Z,11.45
2022-09-24T17:56:12.919Z,11.52
2022-09-24T17:58:42.211Z,12.82
2022-09-24T18:01:12.668Z,11.70
2022-09-24T18:03:40.552Z,13.73
2022-09-24T18:06:10.868Z,14.38
2022-09-24T18:08:39.477Z,13.48
2022-09-24T18:11:07.935Z,17.42
2022-09-24T18:13:35.187Z,15.40
2022-09-24T18:16:07.633Z,14.55
2022-09-24T18:18:35.285Z,15.98
2022-09-24T18:21:03.986Z,14.98
2022-09-24T18:23:31.411Z,13.50
2022-09-24T18:26:17.729Z,16.50
2022-09-24T18:28:57.905Z,15.38
2022-09-24T18:31:28.193Z,14.52
2022-09-24T18:33:57.766Z,13.90
2022-09-24T18:36:25.892Z,12.57
2022-09-24T18:38:54.008Z,15.20
2022-09-24T18:41:23.912Z,15.25
2022-09-24T18:43:52.458Z,15.63
2022-09-24T18:46:20.927Z,14.43
2022-09-24T18:48:50.737Z,16.30
2022-09-24T18:51:20.922Z,16.30
2022-09-24T18:53:56.198Z,15.30
2022-09-24T18:56:26.789Z,16.10
2022-09-24T18:59:05.913Z,15.63
2022-09-24T19:01:37.097Z,14.38
2022-09-24T19:04:04.356Z,14.65
2022-09-24T19:06:33.950Z,13.77
2022-09-24T19:09:01.211Z,14.25
2022-09-24T19:11:30.631Z,14.90
2022-09-24T19:13:58.510Z,15.07
2022-09-24T19:16:26.156Z,14.32
2022-09-24T19:18:54.099Z,13.43
2022-09-24T19:21:25.966Z,10.70
2022-09-24T19:23:55.439Z,12.88
2022-09-24T19:26:24.888Z,12.23
2022-09-24T19:28:52.337Z,12.57
2022-09-24T19:31:22.507Z,12.23
2022-09-24T19:33:50.738Z,13.32
2022-09-24T19:36:18.102Z,12.63
2022-09-24T19:38:45.531Z,13.50
2022-09-24T19:41:15.253Z,12.80
2022-09-24T19:43:43.660Z,12.07
2022-09-24T19:46:17.421Z,11.27
2022-09-24T19:48:49.033Z,11.80
2022-09-24T19:51:22.188Z,12.35
2022-09-24T19:53:54.385Z,12.68
2022-09-24T19:56:24.683Z,12.65
2022-09-24T19:58:54.175Z,12.20
2022-09-24T20:01:23.695Z,12.23
2022-09-24T20:03:51.539Z,11.98
2022-09-24T20:06:22.649Z,12.00
2022-09-24T20:08:49.892Z,12.68
2022-09-24T20:11:20.509Z,11.90
2022-09-24T20:13:48.856Z,12.52
2022-09-24T20:16:21.281Z,11.07
2022-09-24T20:18:55.689Z,11.77
2022-09-24T20:21:24.157Z,11.80
2022-09-24T20:23:54.396Z,11.88
2022-09-24T20:26:40.394Z,11.82
2022-09-24T20:29:09.680Z,12.77
2022-09-24T20:31:40.268Z,13.85
2022-09-24T20:34:07.257Z,14.27
2022-09-24T20:36:35.341Z,14.13
2022-09-24T20:39:03.966Z,16.40
2022-09-24T20:41:31.011Z,14.27
2022-09-24T20:43:57.982Z,12.50
2022-09-24T20:46:28.702Z,11.23
2022-09-24T20:48:58.265Z,10.65
2022-09-24T20:51:27.307Z,8.80
2022-09-24T20:53:55.050Z,8.70
2022-09-24T20:56:22.373Z,8.40
2022-09-24T20:58:50.892Z,7.75
2022-09-24T21:01:18.738Z,9.02
2022-09-24T21:03:47.842Z,8.90
2022-09-24T21:06:16.628Z,8.20
2022-09-24T21:08:45.479Z,8.55
2022-09-24T21:11:16.194Z,8.77
2022-09-24T21:13:45.374Z,8.15
2022-09-24T21:16:12.630Z,7.72
2022-09-24T21:18:45.000Z,7.85
2022-09-24T21:21:17.612Z,7.97
2022-09-24T21:23:46.693Z,7.50
2022-09-24T21:26:15.172Z,8.57
2022-09-24T21:28:46.586Z,9.30
2022-09-24T21:31:15.719Z,9.07
2022-09-24T21:33:47.021Z,8.43
2022-09-24T21:36:18.640Z,7.72
2022-09-24T21:38:55.172Z,8.77
2022-09-24T21:41:23.604Z,8.13
2022-09-24T21:43:50.750Z,8.73
2022-09-24T21:46:17.837Z,8.90
2022-09-24T21:48:44.874Z,8.40
2022-09-24T21:51:14.070Z,9.05
2022-09-24T21:53:41.108Z,7.95
2022-09-24T21:56:08.165Z,7.60
2022-09-24T21:58:35.236Z,7.22
2022-09-24T22:01:04.926Z,7.43
2022-09-24T22:03:32.346Z,7.70
2022-09-24T22:06:03.430Z,6.35
2022-09-24T22:08:32.012Z,6.47
2022-09-24T22:11:10.331Z,5.55
2022-09-24T22:13:38.817Z,6.45
2022-09-24T22:16:07.949Z,6.10
2022-09-24T22:18:36.072Z,6.70
2022-09-24T22:21:09.820Z,6.88
2022-09-24T22:23:37.020Z,7.68
2022-09-24T22:26:04.924Z,6.60
2022-09-24T22:28:32.704Z,6.80
2022-09-24T22:31:04.166Z,6.72
2022-09-24T22:33:49.958Z,8.85
2022-09-24T22:36:17.184Z,7.50
2022-09-24T22:38:44.332Z,7.57
2022-09-24T22:41:12.264Z,7.82
2022-09-24T22:43:39.806Z,7.75
2022-09-24T22:46:12.624Z,6.53
2022-09-24T22:48:40.080Z,6.10
2022-09-24T22:51:08.796Z,6.45
2022-09-24T22:53:40.575Z,5.97
2022-09-24T22:56:10.909Z,6.55
2022-09-24T22:58:41.480Z,6.38
2022-09-24T23:01:15.272Z,6.00
2022-09-24T23:03:42.917Z,6.38
2022-09-24T23:06:11.102Z,6.35
2022-09-24T23:08:39.155Z,6.75
2022-09-24T23:11:10.980Z,6.10
2022-09-24T23:13:39.547Z,6.65
2022-09-24T23:16:18.068Z,6.85
2022-09-24T23:18:47.654Z,6.80
2022-09-24T23:21:17.367Z,6.88
2022-09-24T23:23:44.759Z,5.97
2022-09-24T23:26:16.797Z,5.90
2022-09-24T23:28:45.773Z,6.00
2022-09-24T23:31:14.481Z,6.25
2022-09-24T23:33:42.720Z,6.78
2022-09-24T23:36:11.720Z,6.28
2022-09-24T23:38:39.197Z,5.60
2022-09-24T23:41:07.005Z,5.95
2022-09-24T23:43:34.074Z,6.13
2022-09-24T23:46:01.346Z,6.03
2022-09-24T23:48:29.302Z,6.38
2022-09-24T23:50:58.421Z,6.53
2022-09-24T23:53:26.673Z,5.90
2022-09-24T23:55:55.316Z,6.55
2022-09-24T23:58:24.263Z,6.05
